sensor_id;sensor_type;location;lat;lon;timestamp;P1;durP1;ratioP1;P2;durP2;ratioP2
5052;SDS011;2545;50.892;5.740;2023-05-15T00:00:31;31.50;;;20.07;;
5052;SDS011;2545;50.892;5.740;2023-05-15T00:02:56;34.30;;;19.83;;
5052;SDS011;2545;50.892;5.740;2023-05-15T00:05:21;39.90;;;21.97;;
5052;SDS011;2545;50.892;5.740;2023-05-15T00:07:47;36.83;;;22.43;;
5052;SDS011;2545;50.892;5.740;2023-05-15T00:10:12;41.57;;;25.77;;
5052;SDS011;2545;50.892;5.740;2023-05-15T00:12:37;41.43;;;24.70;;
5052;SDS011;2545;50.892;5.740;2023-05-15T00:15:03;52.37;;;24.40;;
5052;SDS011;2545;50.892;5.740;2023-05-15T00:17:28;40.33;;;24.90;;
5052;SDS011;2545;50.892;5.740;2023-05-15T00:19:54;43.83;;;26.17;;
5052;SDS011;2545;50.892;5.740;2023-05-15T00:22:21;41.03;;;27.37;;
5052;SDS011;2545;50.892;5.740;2023-05-15T00:24:47;42.47;;;27.20;;
5052;SDS011;2545;50.892;5.740;2023-05-15T00:27:12;48.87;;;27.57;;
5052;SDS011;2545;50.892;5.740;2023-05-15T00:29:37;44.00;;;27.57;;
5052;SDS011;2545;50.892;5.740;2023-05-15T00:32:03;44.40;;;30.27;;
5052;SDS011;2545;50.892;5.740;2023-05-15T00:34:28;53.10;;;29.67;;
5052;SDS011;2545;50.892;5.740;2023-05-15T00:36:54;64.53;;;31.73;;
5052;SDS011;2545;50.892;5.740;2023-05-15T00:39:19;58.80;;;32.27;;
5052;SDS011;2545;50.892;5.740;2023-05-15T00:41:44;56.93;;;31.30;;
5052;SDS011;2545;50.892;5.740;2023-05-15T00:44:12;56.37;;;35.70;;
5052;SDS011;2545;50.892;5.740;2023-05-15T00:46:40;54.70;;;32.73;;
5052;SDS011;2545;50.892;5.740;2023-05-15T00:49:09;56.73;;;32.87;;
5052;SDS011;2545;50.892;5.740;2023-05-15T00:51:37;52.10;;;34.20;;
5052;SDS011;2545;50.892;5.740;2023-05-15T00:54:06;68.60;;;32.37;;
5052;SDS011;2545;50.892;5.740;2023-05-15T00:56:32;51.03;;;32.77;;
5052;SDS011;2545;50.892;5.740;2023-05-15T00:58:58;55.90;;;34.80;;
5052;SDS011;2545;50.892;5.740;2023-05-15T01:01:24;52.13;;;34.00;;
5052;SDS011;2545;50.892;5.740;2023-05-15T01:03:50;72.13;;;34.67;;
5052;SDS011;2545;50.892;5.740;2023-05-15T01:06:15;55.83;;;34.80;;
5052;SDS011;2545;50.892;5.740;2023-05-15T01:11:14;54.77;;;31.67;;
5052;SDS011;2545;50.892;5.740;2023-05-15T01:13:40;52.87;;;33.03;;
5052;SDS011;2545;50.892;5.740;2023-05-15T01:16:07;47.10;;;31.77;;
5052;SDS011;2545;50.892;5.740;2023-05-15T01:18:33;57.70;;;32.00;;
5052;SDS011;2545;50.892;5.740;2023-05-15T01:29:07;49.87;;;30.90;;
5052;SDS011;2545;50.892;5.740;2023-05-15T01:31:36;46.37;;;30.93;;
5052;SDS011;2545;50.892;5.740;2023-05-15T01:34:06;50.27;;;29.00;;
5052;SDS011;2545;50.892;5.740;2023-05-15T01:36:44;46.13;;;29.43;;
5052;SDS011;2545;50.892;5.740;2023-05-15T01:39:14;43.77;;;29.30;;
5052;SDS011;2545;50.892;5.740;2023-05-15T01:44:26;46.90;;;29.50;;
5052;SDS011;2545;50.892;5.740;2023-05-15T01:46:55;44.40;;;28.93;;
5052;SDS011;2545;50.892;5.740;2023-05-15T01:49:23;47.27;;;29.80;;
5052;SDS011;2545;50.892;5.740;2023-05-15T01:51:52;43.27;;;29.37;;
5052;SDS011;2545;50.892;5.740;2023-05-15T01:54:23;46.00;;;26.77;;
5052;SDS011;2545;50.892;5.740;2023-05-15T01:56:49;45.97;;;29.40;;
5052;SDS011;2545;50.892;5.740;2023-05-15T01:59:16;43.10;;;29.17;;
5052;SDS011;2545;50.892;5.740;2023-05-15T02:01:44;44.13;;;29.33;;
5052;SDS011;2545;50.892;5.740;2023-05-15T02:04:10;48.63;;;31.00;;
5052;SDS011;2545;50.892;5.740;2023-05-15T02:06:36;45.60;;;29.60;;
5052;SDS011;2545;50.892;5.740;2023-05-15T02:09:02;46.63;;;29.77;;
5052;SDS011;2545;50.892;5.740;2023-05-15T02:11:28;55.97;;;29.93;;
5052;SDS011;2545;50.892;5.740;2023-05-15T02:13:53;46.87;;;29.20;;
5052;SDS011;2545;50.892;5.740;2023-05-15T02:16:21;60.87;;;31.73;;
5052;SDS011;2545;50.892;5.740;2023-05-15T02:18:46;51.83;;;30.73;;
5052;SDS011;2545;50.892;5.740;2023-05-15T02:21:11;45.83;;;30.20;;
5052;SDS011;2545;50.892;5.740;2023-05-15T02:23:37;51.70;;;31.17;;
5052;SDS011;2545;50.892;5.740;2023-05-15T02:31:13;46.60;;;31.10;;
5052;SDS011;2545;50.892;5.740;2023-05-15T02:36:24;48.40;;;29.00;;
5052;SDS011;2545;50.892;5.740;2023-05-15T02:38:54;55.37;;;33.97;;
5052;SDS011;2545;50.892;5.740;2023-05-15T02:41:22;64.00;;;35.47;;
5052;SDS011;2545;50.892;5.740;2023-05-15T02:43:49;62.70;;;35.60;;
5052;SDS011;2545;50.892;5.740;2023-05-15T02:46:16;64.60;;;34.87;;
5052;SDS011;2545;50.892;5.740;2023-05-15T02:48:43;64.10;;;35.90;;
5052;SDS011;2545;50.892;5.740;2023-05-15T02:51:11;71.13;;;37.00;;
5052;SDS011;2545;50.892;5.740;2023-05-15T02:53:40;70.97;;;35.37;;
5052;SDS011;2545;50.892;5.740;2023-05-15T02:56:07;63.70;;;36.80;;
5052;SDS011;2545;50.892;5.740;2023-05-15T02:58:33;64.70;;;35.73;;
5052;SDS011;2545;50.892;5.740;2023-05-15T03:00:58;56.67;;;35.23;;
5052;SDS011;2545;50.892;5.740;2023-05-15T03:03:24;66.53;;;37.83;;
5052;SDS011;2545;50.892;5.740;2023-05-15T03:05:50;65.07;;;37.47;;
5052;SDS011;2545;50.892;5.740;2023-05-15T03:08:15;68.43;;;39.33;;
5052;SDS011;2545;50.892;5.740;2023-05-15T03:10:40;65.73;;;35.80;;
5052;SDS011;2545;50.892;5.740;2023-05-15T03:13:06;71.80;;;37.30;;
5052;SDS011;2545;50.892;5.740;2023-05-15T03:15:31;72.40;;;38.43;;
5052;SDS011;2545;50.892;5.740;2023-05-15T03:17:56;67.53;;;38.00;;
5052;SDS011;2545;50.892;5.740;2023-05-15T03:20:21;65.87;;;40.20;;
5052;SDS011;2545;50.892;5.740;2023-05-15T03:22:47;67.13;;;38.27;;
5052;SDS011;2545;50.892;5.740;2023-05-15T03:25:12;72.93;;;38.43;;
5052;SDS011;2545;50.892;5.740;2023-05-15T03:27:37;78.27;;;41.77;;
5052;SDS011;2545;50.892;5.740;2023-05-15T03:30:03;84.00;;;42.63;;
5052;SDS011;2545;50.892;5.740;2023-05-15T03:32:30;88.10;;;41.07;;
5052;SDS011;2545;50.892;5.740;2023-05-15T03:34:55;83.00;;;42.03;;
5052;SDS011;2545;50.892;5.740;2023-05-15T03:37:20;80.60;;;42.60;;
5052;SDS011;2545;50.892;5.740;2023-05-15T03:39:45;75.70;;;42.47;;
5052;SDS011;2545;50.892;5.740;2023-05-15T03:42:11;78.50;;;44.23;;
5052;SDS011;2545;50.892;5.740;2023-05-15T03:44:36;88.33;;;45.17;;
5052;SDS011;2545;50.892;5.740;2023-05-15T03:47:01;76.37;;;41.67;;
5052;SDS011;2545;50.892;5.740;2023-05-15T03:49:27;90.93;;;46.07;;
5052;SDS011;2545;50.892;5.740;2023-05-15T03:51:52;85.43;;;44.87;;
5052;SDS011;2545;50.892;5.740;2023-05-15T03:54:17;98.50;;;47.03;;
5052;SDS011;2545;50.892;5.740;2023-05-15T03:56:43;89.80;;;49.10;;
5052;SDS011;2545;50.892;5.740;2023-05-15T03:59:08;107.97;;;48.73;;
5052;SDS011;2545;50.892;5.740;2023-05-15T04:01:34;106.03;;;49.33;;
5052;SDS011;2545;50.892;5.740;2023-05-15T04:03:59;103.33;;;49.30;;
5052;SDS011;2545;50.892;5.740;2023-05-15T04:06:24;88.00;;;46.70;;
5052;SDS011;2545;50.892;5.740;2023-05-15T04:08:49;97.47;;;49.93;;
5052;SDS011;2545;50.892;5.740;2023-05-15T04:11:15;96.50;;;47.70;;
5052;SDS011;2545;50.892;5.740;2023-05-15T04:13:41;89.00;;;44.30;;
5052;SDS011;2545;50.892;5.740;2023-05-15T04:16:06;97.13;;;45.03;;
5052;SDS011;2545;50.892;5.740;2023-05-15T04:18:32;89.60;;;46.33;;
5052;SDS011;2545;50.892;5.740;2023-05-15T04:20:57;97.63;;;46.83;;
5052;SDS011;2545;50.892;5.740;2023-05-15T04:23:22;97.37;;;45.63;;
5052;SDS011;2545;50.892;5.740;2023-05-15T04:25:48;85.67;;;43.23;;
5052;SDS011;2545;50.892;5.740;2023-05-15T04:28:13;90.77;;;45.40;;
5052;SDS011;2545;50.892;5.740;2023-05-15T04:30:39;105.63;;;47.70;;
5052;SDS011;2545;50.892;5.740;2023-05-15T04:33:05;101.57;;;45.63;;
5052;SDS011;2545;50.892;5.740;2023-05-15T04:35:31;90.37;;;45.43;;
5052;SDS011;2545;50.892;5.740;2023-05-15T04:37:56;95.03;;;44.43;;
5052;SDS011;2545;50.892;5.740;2023-05-15T04:40:22;90.87;;;47.00;;
5052;SDS011;2545;50.892;5.740;2023-05-15T04:42:47;89.60;;;45.77;;
5052;SDS011;2545;50.892;5.740;2023-05-15T04:45:12;93.50;;;47.80;;
5052;SDS011;2545;50.892;5.740;2023-05-15T04:47:38;85.97;;;45.00;;
5052;SDS011;2545;50.892;5.740;2023-05-15T04:50:04;101.97;;;46.67;;
5052;SDS011;2545;50.892;5.740;2023-05-15T04:52:30;97.17;;;46.90;;
5052;SDS011;2545;50.892;5.740;2023-05-15T04:54:56;98.90;;;46.23;;
5052;SDS011;2545;50.892;5.740;2023-05-15T04:57:21;95.07;;;47.00;;
5052;SDS011;2545;50.892;5.740;2023-05-15T04:59:47;97.77;;;45.90;;
5052;SDS011;2545;50.892;5.740;2023-05-15T05:02:12;92.87;;;47.60;;
5052;SDS011;2545;50.892;5.740;2023-05-15T05:04:40;99.43;;;50.83;;
5052;SDS011;2545;50.892;5.740;2023-05-15T05:07:06;85.90;;;45.10;;
5052;SDS011;2545;50.892;5.740;2023-05-15T05:09:33;101.77;;;49.73;;
5052;SDS011;2545;50.892;5.740;2023-05-15T05:11:59;107.03;;;51.20;;
5052;SDS011;2545;50.892;5.740;2023-05-15T05:14:25;93.50;;;47.40;;
5052;SDS011;2545;50.892;5.740;2023-05-15T05:16:51;97.37;;;51.00;;
5052;SDS011;2545;50.892;5.740;2023-05-15T05:19:16;96.73;;;51.90;;
5052;SDS011;2545;50.892;5.740;2023-05-15T05:21:41;99.83;;;49.03;;
5052;SDS011;2545;50.892;5.740;2023-05-15T05:24:07;100.43;;;50.13;;
5052;SDS011;2545;50.892;5.740;2023-05-15T05:26:32;107.90;;;48.10;;
5052;SDS011;2545;50.892;5.740;2023-05-15T05:28:57;93.73;;;47.30;;
5052;SDS011;2545;50.892;5.740;2023-05-15T05:31:23;104.13;;;50.60;;
5052;SDS011;2545;50.892;5.740;2023-05-15T05:33:48;109.27;;;49.00;;
5052;SDS011;2545;50.892;5.740;2023-05-15T05:36:13;94.53;;;46.83;;
5052;SDS011;2545;50.892;5.740;2023-05-15T05:38:40;100.07;;;49.07;;
5052;SDS011;2545;50.892;5.740;2023-05-15T05:41:06;96.13;;;48.03;;
5052;SDS011;2545;50.892;5.740;2023-05-15T05:43:31;93.57;;;46.50;;
5052;SDS011;2545;50.892;5.740;2023-05-15T05:45:57;100.27;;;45.33;;
5052;SDS011;2545;50.892;5.740;2023-05-15T05:48:22;96.97;;;49.73;;
5052;SDS011;2545;50.892;5.740;2023-05-15T05:50:47;104.50;;;49.47;;
5052;SDS011;2545;50.892;5.740;2023-05-15T05:53:13;96.50;;;45.60;;
5052;SDS011;2545;50.892;5.740;2023-05-15T05:55:38;96.37;;;45.60;;
5052;SDS011;2545;50.892;5.740;2023-05-15T05:58:04;89.13;;;45.90;;
5052;SDS011;2545;50.892;5.740;2023-05-15T06:00:29;92.47;;;43.73;;
5052;SDS011;2545;50.892;5.740;2023-05-15T06:02:55;77.10;;;42.60;;
5052;SDS011;2545;50.892;5.740;2023-05-15T06:05:22;78.80;;;42.23;;
5052;SDS011;2545;50.892;5.740;2023-05-15T06:07:48;85.20;;;42.57;;
5052;SDS011;2545;50.892;5.740;2023-05-15T06:10:13;94.20;;;43.07;;
5052;SDS011;2545;50.892;5.740;2023-05-15T06:12:39;95.23;;;45.87;;
5052;SDS011;2545;50.892;5.740;2023-05-15T06:15:05;84.70;;;42.67;;
5052;SDS011;2545;50.892;5.740;2023-05-15T06:17:31;83.37;;;41.93;;
5052;SDS011;2545;50.892;5.740;2023-05-15T06:19:56;80.70;;;42.17;;
5052;SDS011;2545;50.892;5.740;2023-05-15T06:22:21;88.87;;;42.33;;
5052;SDS011;2545;50.892;5.740;2023-05-15T06:24:48;81.50;;;42.90;;
5052;SDS011;2545;50.892;5.740;2023-05-15T06:27:13;85.93;;;42.13;;
5052;SDS011;2545;50.892;5.740;2023-05-15T06:29:38;75.70;;;40.83;;
5052;SDS011;2545;50.892;5.740;2023-05-15T06:32:04;82.63;;;41.87;;
5052;SDS011;2545;50.892;5.740;2023-05-15T06:34:30;83.87;;;43.23;;
5052;SDS011;2545;50.892;5.740;2023-05-15T06:36:55;82.90;;;41.67;;
5052;SDS011;2545;50.892;5.740;2023-05-15T06:39:20;74.43;;;39.53;;
5052;SDS011;2545;50.892;5.740;2023-05-15T06:41:46;76.17;;;41.17;;
5052;SDS011;2545;50.892;5.740;2023-05-15T06:44:11;75.83;;;40.83;;
5052;SDS011;2545;50.892;5.740;2023-05-15T06:46:36;70.33;;;40.23;;
5052;SDS011;2545;50.892;5.740;2023-05-15T06:49:02;81.47;;;42.50;;
5052;SDS011;2545;50.892;5.740;2023-05-15T06:51:27;78.07;;;39.07;;
5052;SDS011;2545;50.892;5.740;2023-05-15T06:53:52;83.63;;;40.90;;
5052;SDS011;2545;50.892;5.740;2023-05-15T06:56:18;85.47;;;40.23;;
5052;SDS011;2545;50.892;5.740;2023-05-15T06:58:43;75.30;;;40.37;;
5052;SDS011;2545;50.892;5.740;2023-05-15T07:01:09;80.10;;;41.83;;
5052;SDS011;2545;50.892;5.740;2023-05-15T07:03:34;87.50;;;42.00;;
5052;SDS011;2545;50.892;5.740;2023-05-15T07:05:59;88.43;;;44.53;;
5052;SDS011;2545;50.892;5.740;2023-05-15T07:08:25;79.90;;;42.30;;
5052;SDS011;2545;50.892;5.740;2023-05-15T07:10:51;77.97;;;44.70;;
5052;SDS011;2545;50.892;5.740;2023-05-15T07:13:16;86.27;;;42.20;;
5052;SDS011;2545;50.892;5.740;2023-05-15T07:15:42;73.40;;;40.33;;
5052;SDS011;2545;50.892;5.740;2023-05-15T07:18:08;72.97;;;40.33;;
5052;SDS011;2545;50.892;5.740;2023-05-15T07:20:33;77.63;;;41.50;;
5052;SDS011;2545;50.892;5.740;2023-05-15T07:22:58;71.77;;;38.57;;
5052;SDS011;2545;50.892;5.740;2023-05-15T07:25:24;69.17;;;38.07;;
5052;SDS011;2545;50.892;5.740;2023-05-15T07:27:49;91.87;;;43.17;;
5052;SDS011;2545;50.892;5.740;2023-05-15T07:30:15;71.87;;;39.57;;
5052;SDS011;2545;50.892;5.740;2023-05-15T07:32:40;82.50;;;41.07;;
5052;SDS011;2545;50.892;5.740;2023-05-15T07:35:06;82.60;;;39.47;;
5052;SDS011;2545;50.892;5.740;2023-05-15T07:37:31;69.80;;;39.47;;
5052;SDS011;2545;50.892;5.740;2023-05-15T07:39:57;67.13;;;36.87;;
5052;SDS011;2545;50.892;5.740;2023-05-15T07:42:23;69.17;;;39.43;;
5052;SDS011;2545;50.892;5.740;2023-05-15T07:44:49;77.80;;;39.77;;
5052;SDS011;2545;50.892;5.740;2023-05-15T07:47:14;71.47;;;37.30;;
5052;SDS011;2545;50.892;5.740;2023-05-15T07:49:40;64.43;;;35.90;;
5052;SDS011;2545;50.892;5.740;2023-05-15T07:52:06;61.10;;;35.27;;
5052;SDS011;2545;50.892;5.740;2023-05-15T07:54:31;61.87;;;35.70;;
5052;SDS011;2545;50.892;5.740;2023-05-15T07:56:56;66.10;;;36.40;;
5052;SDS011;2545;50.892;5.740;2023-05-15T07:59:22;61.17;;;36.70;;
5052;SDS011;2545;50.892;5.740;2023-05-15T08:01:48;72.87;;;36.43;;
5052;SDS011;2545;50.892;5.740;2023-05-15T08:04:13;67.83;;;35.57;;
5052;SDS011;2545;50.892;5.740;2023-05-15T08:06:39;60.13;;;36.07;;
5052;SDS011;2545;50.892;5.740;2023-05-15T08:09:04;60.03;;;36.37;;
5052;SDS011;2545;50.892;5.740;2023-05-15T08:11:29;61.07;;;36.00;;
5052;SDS011;2545;50.892;5.740;2023-05-15T08:13:55;58.90;;;35.27;;
5052;SDS011;2545;50.892;5.740;2023-05-15T08:16:20;63.30;;;34.80;;
5052;SDS011;2545;50.892;5.740;2023-05-15T08:18:46;67.83;;;36.33;;
5052;SDS011;2545;50.892;5.740;2023-05-15T08:21:11;56.60;;;33.97;;
5052;SDS011;2545;50.892;5.740;2023-05-15T08:23:37;60.97;;;34.93;;
5052;SDS011;2545;50.892;5.740;2023-05-15T08:26:02;68.60;;;34.37;;
5052;SDS011;2545;50.892;5.740;2023-05-15T08:28:27;64.23;;;34.30;;
5052;SDS011;2545;50.892;5.740;2023-05-15T08:30:53;64.53;;;32.60;;
5052;SDS011;2545;50.892;5.740;2023-05-15T08:33:18;65.23;;;34.90;;
5052;SDS011;2545;50.892;5.740;2023-05-15T08:35:43;55.47;;;31.20;;
5052;SDS011;2545;50.892;5.740;2023-05-15T08:38:09;52.67;;;31.20;;
5052;SDS011;2545;50.892;5.740;2023-05-15T08:40:34;61.47;;;34.87;;
5052;SDS011;2545;50.892;5.740;2023-05-15T08:43:00;58.50;;;33.60;;
5052;SDS011;2545;50.892;5.740;2023-05-15T08:45:29;53.80;;;31.40;;
5052;SDS011;2545;50.892;5.740;2023-05-15T08:47:54;58.47;;;31.30;;
5052;SDS011;2545;50.892;5.740;2023-05-15T08:50:22;52.23;;;28.90;;
5052;SDS011;2545;50.892;5.740;2023-05-15T08:52:50;57.00;;;32.23;;
5052;SDS011;2545;50.892;5.740;2023-05-15T08:55:22;58.07;;;32.63;;
5052;SDS011;2545;50.892;5.740;2023-05-15T08:57:47;77.40;;;33.17;;
5052;SDS011;2545;50.892;5.740;2023-05-15T09:00:14;58.20;;;32.83;;
5052;SDS011;2545;50.892;5.740;2023-05-15T09:02:40;58.53;;;33.07;;
5052;SDS011;2545;50.892;5.740;2023-05-15T09:05:06;59.90;;;33.63;;
5052;SDS011;2545;50.892;5.740;2023-05-15T09:07:33;55.67;;;30.30;;
5052;SDS011;2545;50.892;5.740;2023-05-15T09:10:00;58.43;;;33.77;;
5052;SDS011;2545;50.892;5.740;2023-05-15T09:12:27;55.37;;;32.17;;
5052;SDS011;2545;50.892;5.740;2023-05-15T09:15:11;58.83;;;35.83;;
5052;SDS011;2545;50.892;5.740;2023-05-15T09:17:39;62.80;;;34.77;;
5052;SDS011;2545;50.892;5.740;2023-05-15T09:20:10;70.30;;;35.30;;
5052;SDS011;2545;50.892;5.740;2023-05-15T09:22:49;75.73;;;35.63;;
5052;SDS011;2545;50.892;5.740;2023-05-15T09:25:18;65.70;;;33.97;;
5052;SDS011;2545;50.892;5.740;2023-05-15T09:27:57;56.20;;;34.03;;
5052;SDS011;2545;50.892;5.740;2023-05-15T09:30:23;69.83;;;35.30;;
5052;SDS011;2545;50.892;5.740;2023-05-15T09:32:50;50.57;;;31.30;;
5052;SDS011;2545;50.892;5.740;2023-05-15T09:35:35;55.07;;;32.17;;
5052;SDS011;2545;50.892;5.740;2023-05-15T09:38:02;67.13;;;33.20;;
5052;SDS011;2545;50.892;5.740;2023-05-15T09:40:31;60.23;;;35.27;;
5052;SDS011;2545;50.892;5.740;2023-05-15T09:42:57;53.63;;;32.23;;
5052;SDS011;2545;50.892;5.740;2023-05-15T09:45:23;57.50;;;33.53;;
5052;SDS011;2545;50.892;5.740;2023-05-15T09:47:54;73.43;;;33.93;;
5052;SDS011;2545;50.892;5.740;2023-05-15T09:50:23;62.33;;;32.97;;
5052;SDS011;2545;50.892;5.740;2023-05-15T09:52:57;53.23;;;30.43;;
5052;SDS011;2545;50.892;5.740;2023-05-15T09:55:23;55.40;;;32.80;;
5052;SDS011;2545;50.892;5.740;2023-05-15T09:58:10;52.83;;;30.80;;
5052;SDS011;2545;50.892;5.740;2023-05-15T10:00:38;55.37;;;31.80;;
5052;SDS011;2545;50.892;5.740;2023-05-15T10:03:06;52.73;;;32.57;;
5052;SDS011;2545;50.892;5.740;2023-05-15T10:05:33;55.17;;;32.30;;
5052;SDS011;2545;50.892;5.740;2023-05-15T10:07:59;53.90;;;32.33;;
5052;SDS011;2545;50.892;5.740;2023-05-15T10:10:24;50.93;;;30.57;;
5052;SDS011;2545;50.892;5.740;2023-05-15T10:12:51;52.87;;;31.67;;
5052;SDS011;2545;50.892;5.740;2023-05-15T10:15:18;57.57;;;33.87;;
5052;SDS011;2545;50.892;5.740;2023-05-15T10:17:47;63.10;;;30.93;;
5052;SDS011;2545;50.892;5.740;2023-05-15T10:20:17;55.03;;;29.37;;
5052;SDS011;2545;50.892;5.740;2023-05-15T10:22:44;53.57;;;29.33;;
5052;SDS011;2545;50.892;5.740;2023-05-15T10:25:15;45.97;;;28.40;;
5052;SDS011;2545;50.892;5.740;2023-05-15T10:27:52;57.80;;;29.27;;
5052;SDS011;2545;50.892;5.740;2023-05-15T10:30:18;45.93;;;29.50;;
5052;SDS011;2545;50.892;5.740;2023-05-15T10:32:45;51.73;;;31.27;;
5052;SDS011;2545;50.892;5.740;2023-05-15T10:35:13;47.00;;;29.40;;
5052;SDS011;2545;50.892;5.740;2023-05-15T10:37:39;47.83;;;30.93;;
5052;SDS011;2545;50.892;5.740;2023-05-15T10:40:05;42.17;;;28.53;;
5052;SDS011;2545;50.892;5.740;2023-05-15T10:42:35;43.93;;;27.70;;
5052;SDS011;2545;50.892;5.740;2023-05-15T10:45:03;50.63;;;31.63;;
5052;SDS011;2545;50.892;5.740;2023-05-15T10:47:31;46.30;;;28.70;;
5052;SDS011;2545;50.892;5.740;2023-05-15T10:49:57;45.97;;;28.20;;
5052;SDS011;2545;50.892;5.740;2023-05-15T10:52:23;40.10;;;28.13;;
5052;SDS011;2545;50.892;5.740;2023-05-15T10:54:49;41.60;;;28.00;;
5052;SDS011;2545;50.892;5.740;2023-05-15T10:57:16;41.20;;;26.40;;
5052;SDS011;2545;50.892;5.740;2023-05-15T10:59:41;47.03;;;25.33;;
5052;SDS011;2545;50.892;5.740;2023-05-15T11:02:27;40.47;;;24.80;;
5052;SDS011;2545;50.892;5.740;2023-05-15T11:05:01;38.93;;;26.10;;
5052;SDS011;2545;50.892;5.740;2023-05-15T11:07:30;42.30;;;24.97;;
5052;SDS011;2545;50.892;5.740;2023-05-15T11:09:55;38.23;;;26.53;;
5052;SDS011;2545;50.892;5.740;2023-05-15T11:12:21;44.80;;;26.60;;
5052;SDS011;2545;50.892;5.740;2023-05-15T11:17:15;39.63;;;25.07;;
5052;SDS011;2545;50.892;5.740;2023-05-15T11:24:52;31.33;;;21.97;;
5052;SDS011;2545;50.892;5.740;2023-05-15T11:27:18;30.60;;;21.37;;
5052;SDS011;2545;50.892;5.740;2023-05-15T11:30:04;36.83;;;23.53;;
5052;SDS011;2545;50.892;5.740;2023-05-15T11:32:56;35.97;;;25.37;;
5052;SDS011;2545;50.892;5.740;2023-05-15T11:35:36;33.03;;;23.13;;
5052;SDS011;2545;50.892;5.740;2023-05-15T11:38:15;32.17;;;22.33;;
5052;SDS011;2545;50.892;5.740;2023-05-15T11:43:18;32.67;;;22.63;;
5052;SDS011;2545;50.892;5.740;2023-05-15T11:45:45;25.10;;;19.93;;
5052;SDS011;2545;50.892;5.740;2023-05-15T11:48:13;28.00;;;20.03;;
5052;SDS011;2545;50.892;5.740;2023-05-15T11:50:40;24.27;;;19.13;;
5052;SDS011;2545;50.892;5.740;2023-05-15T11:53:06;28.10;;;20.27;;
5052;SDS011;2545;50.892;5.740;2023-05-15T11:55:34;28.93;;;22.20;;
5052;SDS011;2545;50.892;5.740;2023-05-15T11:58:01;27.73;;;20.83;;
5052;SDS011;2545;50.892;5.740;2023-05-15T12:00:28;31.80;;;23.27;;
5052;SDS011;2545;50.892;5.740;2023-05-15T12:02:54;35.37;;;22.67;;
5052;SDS011;2545;50.892;5.740;2023-05-15T12:05:19;36.03;;;23.40;;
5052;SDS011;2545;50.892;5.740;2023-05-15T12:07:45;38.70;;;24.27;;
5052;SDS011;2545;50.892;5.740;2023-05-15T12:10:11;35.00;;;23.50;;
5052;SDS011;2545;50.892;5.740;2023-05-15T12:12:41;36.73;;;25.20;;
5052;SDS011;2545;50.892;5.740;2023-05-15T12:15:10;36.03;;;23.73;;
5052;SDS011;2545;50.892;5.740;2023-05-15T12:17:37;37.30;;;25.03;;
5052;SDS011;2545;50.892;5.740;2023-05-15T12:20:04;38.70;;;24.50;;
5052;SDS011;2545;50.892;5.740;2023-05-15T12:22:36;32.23;;;22.80;;
5052;SDS011;2545;50.892;5.740;2023-05-15T12:25:02;37.80;;;25.13;;
5052;SDS011;2545;50.892;5.740;2023-05-15T12:27:29;39.00;;;24.40;;
5052;SDS011;2545;50.892;5.740;2023-05-15T12:29:54;32.67;;;23.63;;
5052;SDS011;2545;50.892;5.740;2023-05-15T12:32:20;33.97;;;23.73;;
5052;SDS011;2545;50.892;5.740;2023-05-15T12:34:45;30.67;;;23.57;;
5052;SDS011;2545;50.892;5.740;2023-05-15T12:37:12;32.33;;;23.30;;
5052;SDS011;2545;50.892;5.740;2023-05-15T12:39:53;30.53;;;21.20;;
5052;SDS011;2545;50.892;5.740;2023-05-15T12:42:20;28.50;;;21.60;;
5052;SDS011;2545;50.892;5.740;2023-05-15T12:44:48;36.73;;;21.83;;
5052;SDS011;2545;50.892;5.740;2023-05-15T12:47:19;30.33;;;18.70;;
5052;SDS011;2545;50.892;5.740;2023-05-15T12:49:46;32.00;;;18.47;;
5052;SDS011;2545;50.892;5.740;2023-05-15T12:52:13;24.40;;;18.10;;
5052;SDS011;2545;50.892;5.740;2023-05-15T12:54:39;23.90;;;16.77;;
5052;SDS011;2545;50.892;5.740;2023-05-15T12:57:06;21.53;;;17.00;;
5052;SDS011;2545;50.892;5.740;2023-05-15T12:59:32;23.57;;;16.60;;
5052;SDS011;2545;50.892;5.740;2023-05-15T13:01:57;25.97;;;16.97;;
5052;SDS011;2545;50.892;5.740;2023-05-15T13:04:23;23.50;;;17.50;;
5052;SDS011;2545;50.892;5.740;2023-05-15T13:06:48;24.93;;;17.93;;
5052;SDS011;2545;50.892;5.740;2023-05-15T13:09:19;34.23;;;19.00;;
5052;SDS011;2545;50.892;5.740;2023-05-15T13:11:46;26.87;;;19.67;;
5052;SDS011;2545;50.892;5.740;2023-05-15T13:14:11;25.03;;;19.30;;
5052;SDS011;2545;50.892;5.740;2023-05-15T13:16:41;28.07;;;22.40;;
5052;SDS011;2545;50.892;5.740;2023-05-15T13:19:07;32.90;;;22.77;;
5052;SDS011;2545;50.892;5.740;2023-05-15T13:21:33;30.13;;;22.77;;
5052;SDS011;2545;50.892;5.740;2023-05-15T13:23:59;40.73;;;24.63;;
5052;SDS011;2545;50.892;5.740;2023-05-15T13:26:24;35.37;;;23.60;;
5052;SDS011;2545;50.892;5.740;2023-05-15T13:28:50;32.10;;;22.47;;
5052;SDS011;2545;50.892;5.740;2023-05-15T13:31:15;34.90;;;23.10;;
5052;SDS011;2545;50.892;5.740;2023-05-15T13:33:41;29.43;;;22.20;;
5052;SDS011;2545;50.892;5.740;2023-05-15T13:36:06;30.33;;;23.00;;
5052;SDS011;2545;50.892;5.740;2023-05-15T13:38:31;37.90;;;21.40;;
5052;SDS011;2545;50.892;5.740;2023-05-15T13:40:57;25.40;;;19.40;;
5052;SDS011;2545;50.892;5.740;2023-05-15T13:43:22;30.50;;;20.40;;
5052;SDS011;2545;50.892;5.740;2023-05-15T13:45:48;29.03;;;22.47;;
5052;SDS011;2545;50.892;5.740;2023-05-15T13:48:13;32.07;;;24.37;;
5052;SDS011;2545;50.892;5.740;2023-05-15T13:50:38;34.47;;;23.87;;
5052;SDS011;2545;50.892;5.740;2023-05-15T13:53:04;36.90;;;25.60;;
5052;SDS011;2545;50.892;5.740;2023-05-15T13:55:30;36.47;;;26.63;;
5052;SDS011;2545;50.892;5.740;2023-05-15T13:57:55;31.90;;;23.50;;
5052;SDS011;2545;50.892;5.740;2023-05-15T14:00:21;30.30;;;21.40;;
5052;SDS011;2545;50.892;5.740;2023-05-15T14:02:46;35.10;;;20.30;;
5052;SDS011;2545;50.892;5.740;2023-05-15T14:05:13;22.50;;;17.77;;
5052;SDS011;2545;50.892;5.740;2023-05-15T14:07:39;26.30;;;19.17;;
5052;SDS011;2545;50.892;5.740;2023-05-15T14:10:05;28.00;;;19.73;;
5052;SDS011;2545;50.892;5.740;2023-05-15T14:12:32;34.93;;;23.90;;
5052;SDS011;2545;50.892;5.740;2023-05-15T14:14:57;34.23;;;23.77;;
5052;SDS011;2545;50.892;5.740;2023-05-15T14:17:23;37.97;;;25.80;;
5052;SDS011;2545;50.892;5.740;2023-05-15T14:19:49;42.60;;;27.10;;
5052;SDS011;2545;50.892;5.740;2023-05-15T14:22:15;49.23;;;30.37;;
5052;SDS011;2545;50.892;5.740;2023-05-15T14:24:40;39.13;;;28.17;;
5052;SDS011;2545;50.892;5.740;2023-05-15T14:27:06;46.10;;;29.10;;
5052;SDS011;2545;50.892;5.740;2023-05-15T14:29:31;47.50;;;27.87;;
5052;SDS011;2545;50.892;5.740;2023-05-15T14:31:56;45.40;;;28.10;;
5052;SDS011;2545;50.892;5.740;2023-05-15T14:34:22;44.50;;;28.07;;
5052;SDS011;2545;50.892;5.740;2023-05-15T14:36:48;46.23;;;29.60;;
5052;SDS011;2545;50.892;5.740;2023-05-15T14:39:14;42.33;;;27.60;;
5052;SDS011;2545;50.892;5.740;2023-05-15T14:41:40;43.87;;;28.33;;
5052;SDS011;2545;50.892;5.740;2023-05-15T14:44:05;37.40;;;25.70;;
5052;SDS011;2545;50.892;5.740;2023-05-15T14:46:31;37.70;;;23.20;;
5052;SDS011;2545;50.892;5.740;2023-05-15T14:48:56;42.53;;;27.60;;
5052;SDS011;2545;50.892;5.740;2023-05-15T14:51:21;49.33;;;27.13;;
5052;SDS011;2545;50.892;5.740;2023-05-15T14:53:47;51.17;;;27.23;;
5052;SDS011;2545;50.892;5.740;2023-05-15T14:56:12;48.57;;;28.60;;
5052;SDS011;2545;50.892;5.740;2023-05-15T14:58:37;44.50;;;27.80;;
5052;SDS011;2545;50.892;5.740;2023-05-15T15:01:03;47.10;;;28.00;;
5052;SDS011;2545;50.892;5.740;2023-05-15T15:03:29;45.57;;;26.53;;
5052;SDS011;2545;50.892;5.740;2023-05-15T15:05:55;49.87;;;28.13;;
5052;SDS011;2545;50.892;5.740;2023-05-15T15:08:20;51.53;;;27.70;;
5052;SDS011;2545;50.892;5.740;2023-05-15T15:10:45;43.13;;;25.90;;
5052;SDS011;2545;50.892;5.740;2023-05-15T15:13:11;54.30;;;29.63;;
5052;SDS011;2545;50.892;5.740;2023-05-15T15:15:37;50.70;;;28.07;;